createdAt,value
2019-03-03T00:01:44.383Z,100458.66
2019-03-03T00:04:16.383Z,100461.34
2019-03-03T00:06:48.306Z,100463.97
2019-03-03T00:09:20.011Z,100462.34
2019-03-03T00:11:53.260Z,100464.11
2019-03-03T00:14:24.939Z,100457.54
2019-03-03T00:16:56.593Z,100461.88
2019-03-03T00:19:28.658Z,100454.00
2019-03-03T00:22:00.801Z,100442.59
2019-03-03T00:24:32.596Z,100441.73
2019-03-03T00:27:04.216Z,100456.63
2019-03-03T00:29:36.169Z,100449.31
2019-03-03T00:32:07.925Z,100453.13
2019-03-03T00:34:39.622Z,100454.55
2019-03-03T00:37:31.350Z,100448.13
2019-03-03T00:40:28.987Z,100446.95
2019-03-03T00:43:10.010Z,100453.62
2019-03-03T00:45:52.600Z,100454.13
2019-03-03T00:48:44.702Z,100450.67
2019-03-03T00:51:33.986Z,100451.13
2019-03-03T00:54:29.546Z,100452.44
2019-03-03T00:57:11.291Z,100452.90
2019-03-03T01:02:55.246Z,100450.13
2019-03-03T01:05:49.031Z,100449.63
2019-03-03T01:08:28.942Z,100452.25
2019-03-03T01:11:18.423Z,100448.27
2019-03-03T01:14:08.948Z,100457.37
2019-03-03T01:16:58.604Z,100456.96
2019-03-03T01:19:55.669Z,100451.61
2019-03-03T01:22:49.018Z,100457.58
2019-03-03T01:25:20.880Z,100459.69
2019-03-03T01:27:52.618Z,100460.55
2019-03-03T01:30:24.310Z,100458.19
2019-03-03T01:32:56.311Z,100454.56
2019-03-03T01:35:28.075Z,100446.69
2019-03-03T01:38:00.157Z,100449.31
2019-03-03T01:40:31.866Z,100444.92
2019-03-03T01:43:04.489Z,100440.61
2019-03-03T01:45:36.120Z,100436.73
2019-03-03T01:48:08.247Z,100440.61
2019-03-03T01:50:41.567Z,100433.96
2019-03-03T01:53:13.545Z,100428.61
2019-03-03T01:55:45.177Z,100433.77
2019-03-03T01:58:18.359Z,100432.80
2019-03-03T02:00:50.405Z,100427.95
2019-03-03T02:03:22.799Z,100427.95
2019-03-03T02:05:54.715Z,100432.66
2019-03-03T02:08:26.442Z,100430.89
2019-03-03T02:10:58.430Z,100430.49
2019-03-03T02:13:32.607Z,100425.23
2019-03-03T02:16:05.269Z,100422.50
2019-03-03T02:18:37.920Z,100420.73
2019-03-03T02:21:11.098Z,100416.25
2019-03-03T02:23:43.004Z,100416.20
2019-03-03T02:26:15.705Z,100411.00
2019-03-03T02:28:47.358Z,100405.84
2019-03-03T02:31:19.240Z,100394.02
2019-03-03T02:33:52.309Z,100390.99
2019-03-03T02:36:24.498Z,100382.77
2019-03-03T02:38:56.790Z,100383.17
2019-03-03T02:41:28.967Z,100378.83
2019-03-03T02:44:01.849Z,100385.80
2019-03-03T02:46:34.172Z,100386.25
2019-03-03T02:49:07.452Z,100386.70
2019-03-03T02:51:39.538Z,100373.98
2019-03-03T02:54:11.165Z,100375.23
2019-03-03T02:56:44.497Z,100373.47
2019-03-03T02:59:16.085Z,100366.90
2019-03-03T03:01:57.661Z,100365.19
2019-03-03T03:04:30.895Z,100362.11
2019-03-03T03:07:31.837Z,100365.19
2019-03-03T03:10:11.642Z,100363.98
2019-03-03T03:13:01.361Z,100359.28
2019-03-03T03:16:04.793Z,100358.42
2019-03-03T03:19:07.167Z,100360.25
2019-03-03T03:22:06.727Z,100352.06
2019-03-03T03:24:49.556Z,100350.49
2019-03-03T03:27:43.061Z,100345.75
2019-03-03T03:30:29.651Z,100343.64
2019-03-03T03:33:29.230Z,100348.98
2019-03-03T03:36:09.294Z,100337.83
2019-03-03T03:38:53.533Z,100329.66
2019-03-03T03:41:34.443Z,100337.22
2019-03-03T03:44:16.948Z,100328.23
2019-03-03T03:47:17.615Z,100324.81
2019-03-03T03:50:15.430Z,100321.41
2019-03-03T03:53:18.679Z,100319.76
2019-03-03T03:55:59.701Z,100314.11
2019-03-03T03:59:05.998Z,100310.26
2019-03-03T04:02:02.553Z,100312.88
2019-03-03T04:04:53.197Z,100319.13
2019-03-03T04:07:44.159Z,100322.28
2019-03-03T04:10:29.196Z,100318.46
2019-03-03T04:13:24.795Z,100314.52
2019-03-03T04:16:17.152Z,100317.15
2019-03-03T04:18:58.481Z,100314.98
2019-03-03T04:21:48.144Z,100312.76
2019-03-03T04:24:38.692Z,100315.37
2019-03-03T04:27:35.257Z,100319.27
2019-03-03T04:30:26.684Z,100320.58
2019-03-03T04:33:10.270Z,100323.52
2019-03-03T04:36:06.595Z,100326.52
2019-03-03T04:38:54.643Z,100327.31
2019-03-03T04:41:42.644Z,100326.38
2019-03-03T04:44:32.906Z,100328.48
2019-03-03T04:47:12.774Z,100334.53
2019-03-03T04:50:15.514Z,100329.60
2019-03-03T04:53:03.752Z,100327.69
2019-03-03T04:55:51.047Z,100328.63
2019-03-03T04:59:00.331Z,100336.82
2019-03-03T05:01:41.211Z,100333.69
2019-03-03T05:04:31.815Z,100327.18
2019-03-03T05:07:17.614Z,100332.43
2019-03-03T05:10:03.819Z,100340.16
2019-03-03T05:13:06.681Z,100333.55
2019-03-03T05:16:09.261Z,100322.13
2019-03-03T05:18:54.172Z,100322.93
2019-03-03T05:21:25.829Z,100321.63
2019-03-03T05:23:57.568Z,100323.39
2019-03-03T05:26:29.181Z,100324.30
2019-03-03T05:29:01.217Z,100325.67
2019-03-03T05:31:32.855Z,100324.30
2019-03-03T05:34:04.522Z,100325.61
2019-03-03T05:36:36.131Z,100327.78
2019-03-03T05:39:08.458Z,100325.16
2019-03-03T05:41:40.046Z,100323.44
2019-03-03T05:44:12.652Z,100325.67
2019-03-03T05:46:44.289Z,100324.90
2019-03-03T05:49:16.002Z,100327.98
2019-03-03T05:51:47.651Z,100318.39
2019-03-03T05:54:19.249Z,100323.64
2019-03-03T05:56:50.935Z,100314.97
2019-03-03T05:59:22.651Z,100311.48
2019-03-03T06:01:54.609Z,100304.22
2019-03-03T06:04:26.331Z,100304.07
2019-03-03T06:06:57.978Z,100314.11
2019-03-03T06:09:29.588Z,100306.23
2019-03-03T06:12:01.240Z,100304.92
2019-03-03T06:14:32.981Z,100301.45
2019-03-03T06:17:05.038Z,100299.22
2019-03-03T06:19:36.625Z,100296.59
2019-03-03T06:22:08.383Z,100303.16
2019-03-03T06:24:40.399Z,100300.22
2019-03-03T06:27:12.115Z,100292.86
2019-03-03T06:29:43.972Z,100288.13
2019-03-03T06:32:16.149Z,100283.88
2019-03-03T06:34:47.776Z,100269.90
2019-03-03T06:37:19.459Z,100277.31
2019-03-03T06:39:51.455Z,100271.55
2019-03-03T06:42:23.783Z,100273.23
2019-03-03T06:44:55.751Z,100270.16
2019-03-03T06:47:27.916Z,100263.94
2019-03-03T06:49:59.543Z,100258.23
2019-03-03T06:52:31.206Z,100264.64
2019-03-03T06:55:02.827Z,100264.13
2019-03-03T06:57:34.519Z,100260.50
2019-03-03T07:00:10.301Z,100256.45
2019-03-03T07:02:41.967Z,100263.38
2019-03-03T07:05:14.103Z,100264.58
2019-03-03T07:07:45.946Z,100267.20
2019-03-03T07:10:17.647Z,100265.89
2019-03-03T07:12:49.346Z,100269.77
2019-03-03T07:15:21.032Z,100274.02
2019-03-03T07:17:52.702Z,100273.50
2019-03-03T07:20:24.733Z,100269.97
2019-03-03T07:22:56.386Z,100271.73
2019-03-03T07:25:28.191Z,100279.61
2019-03-03T07:27:59.840Z,100280.52
2019-03-03T07:30:31.499Z,100280.92
2019-03-03T07:33:17.131Z,100283.80
2019-03-03T07:35:49.222Z,100276.38
2019-03-03T07:38:20.969Z,100283.73
2019-03-03T07:40:52.635Z,100276.69
2019-03-03T07:43:24.945Z,100282.28
2019-03-03T07:45:56.661Z,100282.47
2019-03-03T07:48:28.345Z,100289.16
2019-03-03T07:51:00.522Z,100281.38
2019-03-03T07:53:32.434Z,100290.24
2019-03-03T07:56:04.113Z,100295.59
2019-03-03T07:58:35.838Z,100282.64
2019-03-03T08:01:07.794Z,100282.97
2019-03-03T08:03:39.453Z,100281.97
2019-03-03T08:06:12.089Z,100283.16
2019-03-03T08:08:43.759Z,100283.55
2019-03-03T08:11:15.390Z,100281.45
2019-03-03T08:13:47.004Z,100287.56
2019-03-03T08:16:18.889Z,100283.22
2019-03-03T08:18:50.687Z,100286.64
2019-03-03T08:21:22.702Z,100282.94
2019-03-03T08:23:54.306Z,100277.63
2019-03-03T08:26:26.001Z,100287.19
2019-03-03T08:28:57.706Z,100287.19
2019-03-03T08:31:29.427Z,100283.73
2019-03-03T08:34:02.824Z,100292.44
2019-03-03T08:36:35.052Z,100283.73
2019-03-03T08:39:08.751Z,100287.06
2019-03-03T08:41:44.252Z,100283.42
2019-03-03T08:44:22.939Z,100285.53
2019-03-03T08:47:03.316Z,100281.36
2019-03-03T08:49:43.359Z,100285.19
2019-03-03T08:52:27.575Z,100294.75
2019-03-03T08:55:24.223Z,100290.68
2019-03-03T08:58:17.555Z,100297.16
2019-03-03T09:01:11.132Z,100290.98
2019-03-03T09:04:14.142Z,100294.86
2019-03-03T09:07:01.268Z,100297.27
2019-03-03T09:09:38.780Z,100296.23
2019-03-03T09:12:28.532Z,100299.03
2019-03-03T09:15:18.337Z,100291.77
2019-03-03T09:18:01.157Z,100295.03
2019-03-03T09:20:42.060Z,100296.12
2019-03-03T09:23:39.264Z,100289.94
2019-03-03T09:26:39.178Z,100289.41
2019-03-03T09:29:24.064Z,100278.99
2019-03-03T09:32:05.336Z,100305.13
2019-03-03T09:35:14.071Z,100295.47
2019-03-03T09:38:02.233Z,100290.30
2019-03-03T09:40:46.388Z,100276.75
2019-03-03T09:43:35.713Z,100281.08
2019-03-03T09:46:16.539Z,100282.48
2019-03-03T09:49:06.245Z,100280.25
2019-03-03T09:51:50.571Z,100279.79
2019-03-03T09:54:41.224Z,100267.77
2019-03-03T09:57:38.021Z,100284.58
2019-03-03T10:00:22.273Z,100260.81
2019-03-03T10:03:06.428Z,100271.70
2019-03-03T10:05:56.105Z,100272.03
2019-03-03T10:08:49.425Z,100258.95
2019-03-03T10:11:58.534Z,100261.34
2019-03-03T10:14:48.047Z,100262.70
2019-03-03T10:17:37.165Z,100265.41
2019-03-03T10:20:47.761Z,100261.39
2019-03-03T10:23:49.923Z,100255.34
2019-03-03T10:26:43.265Z,100257.97
2019-03-03T10:29:33.896Z,100250.28
2019-03-03T10:32:28.020Z,100251.13
2019-03-03T10:35:17.184Z,100240.52
2019-03-03T10:38:10.272Z,100239.56
2019-03-03T10:41:02.638Z,100244.30
2019-03-03T10:44:09.189Z,100243.44
2019-03-03T10:47:00.012Z,100245.69
2019-03-03T10:49:56.791Z,100247.11
2019-03-03T10:52:35.692Z,100244.47
2019-03-03T10:55:13.558Z,100250.46
2019-03-03T10:58:13.339Z,100257.44
2019-03-03T11:00:56.959Z,100243.66
2019-03-03T11:03:36.542Z,100232.95
2019-03-03T11:06:27.351Z,100247.14
2019-03-03T11:09:26.926Z,100230.63
2019-03-03T11:12:17.529Z,100235.51
2019-03-03T11:15:06.100Z,100227.53
2019-03-03T11:17:55.303Z,100230.48
2019-03-03T11:20:58.297Z,100222.41
2019-03-03T11:23:49.240Z,100219.87
2019-03-03T11:26:48.962Z,100220.09
2019-03-03T11:29:35.685Z,100219.30
2019-03-03T11:32:25.847Z,100226.31
2019-03-03T11:35:15.218Z,100217.41
2019-03-03T11:37:56.235Z,100215.12
2019-03-03T11:40:50.424Z,100227.95
2019-03-03T11:43:38.741Z,100206.94
2019-03-03T11:46:35.346Z,100208.20
2019-03-03T11:49:25.881Z,100202.64
2019-03-03T11:52:11.372Z,100204.50
2019-03-03T11:54:57.923Z,100206.20
2019-03-03T11:57:54.507Z,100196.20
2019-03-03T12:00:54.767Z,100203.18
2019-03-03T12:03:54.963Z,100191.89
2019-03-03T12:06:38.049Z,100195.27
2019-03-03T12:09:29.048Z,100179.67
2019-03-03T12:12:28.979Z,100180.98
2019-03-03T12:15:14.838Z,100171.23
2019-03-03T12:18:05.498Z,100165.06
2019-03-03T12:20:54.024Z,100157.08
2019-03-03T12:23:51.315Z,100155.11
2019-03-03T12:26:40.587Z,100151.27
2019-03-03T12:29:26.317Z,100150.00
2019-03-03T12:32:06.254Z,100134.38
2019-03-03T12:34:54.564Z,100132.33
2019-03-03T12:37:45.496Z,100127.83
2019-03-03T12:40:52.812Z,100129.15
2019-03-03T12:43:52.157Z,100128.22
2019-03-03T12:47:01.073Z,100124.54
2019-03-03T12:49:40.032Z,100124.54
2019-03-03T12:52:32.399Z,100128.61
2019-03-03T12:55:25.337Z,100115.19
2019-03-03T12:58:25.592Z,100108.59
2019-03-03T13:01:15.543Z,100110.18
2019-03-03T13:04:09.661Z,100101.77
2019-03-03T13:06:52.265Z,100100.83
2019-03-03T13:09:41.588Z,100092.45
2019-03-03T13:12:20.661Z,100087.19
2019-03-03T13:15:23.279Z,100085.56
2019-03-03T13:18:06.086Z,100083.39
2019-03-03T13:20:50.020Z,100070.87
2019-03-03T13:23:34.149Z,100066.14
2019-03-03T13:26:24.710Z,100065.86
2019-03-03T13:29:24.315Z,100065.02
2019-03-03T13:32:07.487Z,100049.66
2019-03-03T13:34:50.351Z,100050.98
2019-03-03T13:37:39.533Z,100050.59
2019-03-03T13:40:30.181Z,100032.53
2019-03-03T13:43:01.902Z,100038.84
2019-03-03T13:45:36.204Z,100033.22
2019-03-03T13:48:07.917Z,100027.95
2019-03-03T13:50:39.681Z,100027.05
2019-03-03T13:53:11.855Z,100028.94
2019-03-03T13:55:43.579Z,100023.01
2019-03-03T13:58:15.355Z,100013.97
2019-03-03T14:00:47.580Z,100012.75
2019-03-03T14:03:19.748Z,99994.77
2019-03-03T14:05:51.706Z,100002.02
2019-03-03T14:08:23.822Z,99995.52
2019-03-03T14:10:55.540Z,99997.91
2019-03-03T14:13:27.343Z,99996.22
2019-03-03T14:15:59.361Z,99988.98
2019-03-03T14:18:31.020Z,99991.34
2019-03-03T14:21:02.690Z,99977.55
2019-03-03T14:23:34.797Z,99989.81
2019-03-03T14:26:06.856Z,99975.68
2019-03-03T14:28:38.549Z,99973.52
2019-03-03T14:31:10.230Z,99979.08
2019-03-03T14:33:42.779Z,99979.64
2019-03-03T14:36:14.593Z,99970.84
2019-03-03T14:38:46.263Z,99971.34
2019-03-03T14:41:18.330Z,99966.71
2019-03-03T14:43:50.731Z,99971.73
2019-03-03T14:46:23.124Z,99970.58
2019-03-03T14:48:54.805Z,99964.10
2019-03-03T14:51:28.477Z,99964.10
2019-03-03T14:53:59.911Z,99966.36
2019-03-03T14:56:32.456Z,99961.25
2019-03-03T14:59:04.165Z,99961.45
2019-03-03T15:01:35.846Z,99953.45
2019-03-03T15:04:07.710Z,99953.80
2019-03-03T15:06:40.244Z,99948.35
2019-03-03T15:09:19.345Z,99943.80
2019-03-03T15:11:52.807Z,99938.65
2019-03-03T15:14:24.544Z,99928.17
2019-03-03T15:16:57.608Z,99931.87
2019-03-03T15:19:30.828Z,99921.41
2019-03-03T15:22:03.948Z,99924.98
2019-03-03T15:24:37.209Z,99925.36
2019-03-03T15:27:09.459Z,99917.45
2019-03-03T15:29:41.444Z,99923.66
2019-03-03T15:32:14.354Z,99915.36
2019-03-03T15:34:46.051Z,99908.77
2019-03-03T15:37:19.409Z,99905.28
2019-03-03T15:39:51.919Z,99893.98
2019-03-03T15:42:24.494Z,99898.89
2019-03-03T15:44:57.077Z,99893.52
2019-03-03T15:47:28.945Z,99888.42
2019-03-03T15:50:00.819Z,99884.72
2019-03-03T15:52:32.588Z,99882.55
2019-03-03T15:55:04.786Z,99885.58
2019-03-03T15:57:37.207Z,99872.00
2019-03-03T16:00:30.327Z,99867.31
2019-03-03T16:03:02.027Z,99877.02
2019-03-03T16:05:33.705Z,99859.11
2019-03-03T16:08:06.112Z,99852.59
2019-03-03T16:10:37.892Z,99843.10
2019-03-03T16:13:09.619Z,99843.10
2019-03-03T16:15:41.991Z,99830.94
2019-03-03T16:18:13.717Z,99826.34
2019-03-03T16:20:46.502Z,99820.30
2019-03-03T16:23:18.313Z,99822.30
2019-03-03T16:25:51.581Z,99818.42
2019-03-03T16:28:23.327Z,99821.19
2019-03-03T16:30:55.879Z,99808.09
2019-03-03T16:33:27.558Z,99798.47
2019-03-03T16:35:59.330Z,99802.90
2019-03-03T16:38:31.783Z,99798.94
2019-03-03T16:41:03.612Z,99802.17
2019-03-03T16:43:36.900Z,99807.06
2019-03-03T16:46:10.509Z,99795.02
2019-03-03T16:48:42.842Z,99797.83
2019-03-03T16:51:14.521Z,99799.36
2019-03-03T16:53:46.612Z,99796.81
2019-03-03T16:56:18.294Z,99796.52
2019-03-03T16:58:50.605Z,99800.97
2019-03-03T17:01:22.951Z,99794.93
2019-03-03T17:03:54.667Z,99797.77
2019-03-03T17:06:26.403Z,99806.70
2019-03-03T17:08:58.279Z,99802.11
2019-03-03T17:11:30.042Z,99799.17
2019-03-03T17:14:01.728Z,99818.56
2019-03-03T17:16:34.107Z,99805.97
2019-03-03T17:19:05.797Z,99810.77
2019-03-03T17:21:37.509Z,99812.09
2019-03-03T17:24:09.363Z,99816.30
2019-03-03T17:26:41.084Z,99814.14
2019-03-03T17:29:12.853Z,99808.39
2019-03-03T17:31:44.948Z,99811.97
2019-03-03T17:34:17.442Z,99814.25
2019-03-03T17:36:49.354Z,99809.16
2019-03-03T17:39:21.210Z,99808.77
2019-03-03T17:41:53.123Z,99809.23
2019-03-03T17:44:25.690Z,99813.31
2019-03-03T17:46:57.837Z,99804.09
2019-03-03T17:49:30.425Z,99806.34
2019-03-03T17:52:02.255Z,99800.59
2019-03-03T17:54:34.265Z,99791.84
2019-03-03T17:57:06.565Z,99779.98
2019-03-03T17:59:38.539Z,99776.11
2019-03-03T18:02:10.424Z,99773.02
2019-03-03T18:04:43.126Z,99763.79
2019-03-03T18:07:14.991Z,99766.04
2019-03-03T18:09:46.840Z,99761.16
2019-03-03T18:12:19.224Z,99751.55
2019-03-03T18:14:51.120Z,99740.66
2019-03-03T18:17:22.959Z,99732.84
2019-03-03T18:19:55.536Z,99733.59
2019-03-03T18:22:27.348Z,99728.15
2019-03-03T18:24:59.238Z,99728.91
2019-03-03T18:27:31.143Z,99726.53
2019-03-03T18:30:03.032Z,99721.08
2019-03-03T18:32:34.895Z,99717.34
2019-03-03T18:35:07.773Z,99719.28
2019-03-03T18:37:39.751Z,99716.66
2019-03-03T18:40:12.803Z,99715.84
2019-03-03T18:42:44.628Z,99712.35
2019-03-03T18:45:18.683Z,99716.30
2019-03-03T18:47:50.855Z,99715.84
2019-03-03T18:50:23.477Z,99707.09
2019-03-03T18:52:55.506Z,99712.35
2019-03-03T18:55:27.426Z,99713.20
2019-03-03T18:57:59.357Z,99708.41
2019-03-03T19:00:31.826Z,99704.07
2019-03-03T19:03:03.562Z,99696.63
2019-03-03T19:05:36.257Z,99696.63
2019-03-03T19:08:08.331Z,99697.10
2019-03-03T19:10:40.569Z,99695.78
2019-03-03T19:13:12.554Z,99699.32
2019-03-03T19:15:44.634Z,99689.25
2019-03-03T19:18:16.815Z,99687.09
2019-03-03T19:20:48.665Z,99683.60
2019-03-03T19:23:20.583Z,99676.67
2019-03-03T19:25:52.558Z,99667.07
2019-03-03T19:28:24.587Z,99661.42
2019-03-03T19:30:56.851Z,99657.39
2019-03-03T19:33:51.056Z,99656.45
2019-03-03T19:36:22.869Z,99638.95
2019-03-03T19:38:54.819Z,99638.10
2019-03-03T19:41:27.131Z,99632.45
2019-03-03T19:43:58.977Z,99637.72
2019-03-03T19:46:31.680Z,99642.61
2019-03-03T19:49:03.657Z,99639.04
2019-03-03T19:51:35.652Z,99639.97
2019-03-03T19:54:07.692Z,99636.48
2019-03-03T19:56:39.746Z,99642.61
2019-03-03T19:59:11.541Z,99632.54
2019-03-03T20:01:43.533Z,99629.91
2019-03-03T20:04:15.414Z,99624.64
2019-03-03T20:06:47.394Z,99627.66
2019-03-03T20:09:20.052Z,99624.09
2019-03-03T20:11:54.107Z,99619.28
2019-03-03T20:14:26.204Z,99615.72
2019-03-03T20:16:58.104Z,99615.25
2019-03-03T20:19:30.162Z,99609.52
2019-03-03T20:22:02.948Z,99605.91
2019-03-03T20:24:35.242Z,99601.96
2019-03-03T20:27:07.569Z,99597.08
2019-03-03T20:29:40.823Z,99597.54
2019-03-03T20:32:12.612Z,99591.34
2019-03-03T20:34:44.560Z,99590.91
2019-03-03T20:37:16.445Z,99593.53
2019-03-03T20:39:48.245Z,99588.70
2019-03-03T20:42:20.160Z,99579.05
2019-03-03T20:44:54.295Z,99575.95
2019-03-03T20:47:26.199Z,99578.96
2019-03-03T20:49:58.425Z,99572.76
2019-03-03T20:52:30.806Z,99568.42
2019-03-03T20:55:03.820Z,99567.84
2019-03-03T20:57:38.679Z,99575.27
2019-03-03T21:00:19.486Z,99568.34
2019-03-03T21:02:51.424Z,99567.02
2019-03-03T21:05:23.246Z,99555.98
2019-03-03T21:07:56.093Z,99537.92
2019-03-03T21:10:29.886Z,99534.83
2019-03-03T21:13:01.935Z,99529.94
2019-03-03T21:20:39.166Z,99521.09
2019-03-03T21:23:10.925Z,99524.92
2019-03-03T21:25:43.000Z,99516.93
2019-03-03T21:28:15.474Z,99523.42
2019-03-03T21:30:47.274Z,99503.67
2019-03-03T21:33:18.999Z,99510.63
2019-03-03T21:35:51.876Z,99500.09
2019-03-03T21:38:24.532Z,99499.72
2019-03-03T21:40:57.416Z,99500.56
2019-03-03T21:43:29.586Z,99505.71
2019-03-03T21:46:03.466Z,99502.52
2019-03-03T21:48:35.511Z,99491.98
2019-03-03T21:51:07.262Z,99483.05
2019-03-03T21:53:39.023Z,99483.39
2019-03-03T21:56:10.764Z,99471.45
2019-03-03T21:58:43.218Z,99454.32
2019-03-03T22:01:15.890Z,99442.00
2019-03-03T22:03:47.762Z,99429.77
2019-03-03T22:06:19.944Z,99424.23
2019-03-03T22:08:51.632Z,99419.16
2019-03-03T22:11:23.726Z,99422.86
2019-03-03T22:13:56.690Z,99421.73
2019-03-03T22:16:28.894Z,99418.00
2019-03-03T22:19:00.758Z,99416.05
2019-03-03T22:21:32.459Z,99423.57
2019-03-03T22:24:04.721Z,99413.56
2019-03-03T22:26:38.606Z,99411.88
2019-03-03T22:29:10.808Z,99399.30
2019-03-03T22:31:43.004Z,99398.45
2019-03-03T22:34:15.180Z,99387.63
2019-03-03T22:36:47.207Z,99372.80
2019-03-03T22:39:19.329Z,99368.57
2019-03-03T22:41:51.026Z,99361.83
2019-03-03T22:44:23.356Z,99362.14
2019-03-03T22:46:55.998Z,99348.78
2019-03-03T22:49:28.422Z,99352.66
2019-03-03T22:52:01.386Z,99341.72
2019-03-03T22:54:33.162Z,99332.06
2019-03-03T22:57:05.308Z,99331.89
2019-03-03T22:59:37.346Z,99330.05
2019-03-03T23:02:09.459Z,99321.61
2019-03-03T23:05:11.235Z,99316.27
2019-03-03T23:07:55.897Z,99310.18
2019-03-03T23:11:23.823Z,99308.53
2019-03-03T23:14:31.883Z,99310.16
2019-03-03T23:17:34.454Z,99298.77
2019-03-03T23:20:51.262Z,99305.72
2019-03-03T23:24:44.328Z,99302.22
2019-03-03T23:27:16.367Z,99313.98
2019-03-03T23:29:47.994Z,99299.55
2019-03-03T23:32:19.795Z,99295.70
2019-03-03T23:34:51.459Z,99291.76
2019-03-03T23:37:23.325Z,99290.83
2019-03-03T23:39:56.529Z,99291.67
2019-03-03T23:42:28.327Z,99287.73
2019-03-03T23:44:59.962Z,99272.61
2019-03-03T23:47:32.407Z,99279.86
2019-03-03T23:50:06.915Z,99276.76
2019-03-03T23:52:38.734Z,99272.34
2019-03-03T23:55:14.031Z,99268.78
2019-03-03T23:57:45.954Z,99270.09
